Time;durP1;ratioP1;P1;durP2;ratioP2;P2;SDS_P1;SDS_P2;PMS_P1;PMS_P2;Temp;Humidity;BMP_temperature;BMP_pressure;BME280_temperature;BME280_humidity;BME280_pressure;Samples;Min_cycle;Max_cycle;Signal;HPM_P1;HPM_P2
2021/06/23 00:01:53;;;;;;;1.00;0.90;;;24.60;52.40;;;;;;6290242;28;20016;-68
2021/06/23 00:04:54;;;;;;;1.00;0.90;;;24.60;52.40;;;;;;6290242;28;20519;-68
2021/06/23 00:07:54;;;;;;;0.70;0.70;;;24.60;52.40;;;;;;6290294;28;20036;-68
2021/06/23 00:10:55;;;;;;;0.70;0.70;;;24.60;52.40;;;;;;6280776;28;20440;-67
2021/06/23 00:13:56;;;;;;;0.80;0.70;;;24.60;52.40;;;;;;6288642;28;20481;-68
2021/06/23 00:16:56;;;;;;;0.90;0.70;;;24.60;52.50;;;;;;6289979;28;20036;-67
2021/06/23 00:19:57;;;;;;;0.80;0.70;;;24.60;52.40;;;;;;6290232;28;20039;-68
2021/06/23 00:22:57;;;;;;;0.70;0.70;;;24.60;52.40;;;;;;6289614;28;20060;-67
2021/06/23 00:25:58;;;;;;;0.70;0.70;;;24.60;52.50;;;;;;6290237;28;20070;-68
2021/06/23 00:28:59;;;;;;;0.93;0.82;;;24.60;52.40;;;;;;6288169;28;20109;-67
2021/06/23 00:31:59;;;;;;;0.80;0.70;;;24.60;52.50;;;;;;6289795;28;20032;-68
2021/06/23 00:35:00;;;;;;;0.90;0.80;;;24.60;52.40;;;;;;6289923;28;20467;-67
2021/06/23 00:38:00;;;;;;;0.93;0.88;;;24.60;52.50;;;;;;6289488;28;20087;-67
2021/06/23 00:41:01;;;;;;;0.70;0.70;;;24.60;52.40;;;;;;6289675;28;20452;-68
2021/06/23 00:44:02;;;;;;;0.95;0.80;;;24.60;52.40;;;;;;6289443;28;20055;-68
2021/06/23 00:47:03;;;;;;;0.70;0.70;;;24.60;52.50;;;;;;6289385;28;20388;-68
2021/06/23 00:50:06;;;;;;;0.80;0.60;;;24.60;52.50;;;;;;6289482;28;20176;-68
2021/06/23 00:53:07;;;;;;;0.80;0.80;;;24.60;52.50;;;;;;6273557;28;20435;-68
2021/06/23 00:56:08;;;;;;;0.73;0.70;;;24.60;52.50;;;;;;6239676;28;20116;-68
2021/06/23 00:59:10;;;;;;;0.75;0.75;;;24.60;52.50;;;;;;6277066;28;20095;-68
2021/06/23 01:02:12;;;;;;;0.77;0.70;;;24.60;52.50;;;;;;6288874;28;20033;-68
2021/06/23 01:05:13;;;;;;;0.75;0.70;;;24.60;52.50;;;;;;6289166;28;20020;-68
2021/06/23 01:08:14;;;;;;;1.15;0.80;;;24.60;52.50;;;;;;6289111;28;20038;-68
2021/06/23 01:11:14;;;;;;;1.20;0.77;;;24.60;52.50;;;;;;6276846;28;20029;-67
2021/06/23 01:14:16;;;;;;;0.68;0.68;;;24.60;52.50;;;;;;6280057;28;20056;-68
2021/06/23 01:17:19;;;;;;;0.90;0.80;;;24.60;52.50;;;;;;6288607;28;20119;-68
2021/06/23 01:20:19;;;;;;;0.70;0.70;;;24.60;52.60;;;;;;6288385;28;20027;-68
2021/06/23 01:23:20;;;;;;;0.95;0.75;;;24.60;52.60;;;;;;6288220;28;20021;-68
2021/06/23 01:26:21;;;;;;;0.75;0.75;;;24.60;52.50;;;;;;6288480;28;20105;-67
2021/06/23 01:29:21;;;;;;;0.63;0.60;;;24.60;52.50;;;;;;6288192;28;20017;-67
2021/06/23 01:32:22;;;;;;;0.77;0.77;;;24.60;52.50;;;;;;6287064;28;20403;-67
2021/06/23 01:35:23;;;;;;;0.82;0.80;;;24.60;52.50;;;;;;6265989;28;20029;-68
2021/06/23 01:38:25;;;;;;;0.60;0.60;;;24.60;52.50;;;;;;6269275;28;20205;-68
2021/06/23 01:41:25;;;;;;;1.00;0.80;;;24.60;52.50;;;;;;6288812;28;20021;-68
2021/06/23 01:44:28;;;;;;;0.70;0.70;;;24.60;52.50;;;;;;6281320;28;20024;-68
2021/06/23 01:47:28;;;;;;;0.70;0.70;;;24.60;52.60;;;;;;6289031;28;20013;-68
2021/06/23 01:50:29;;;;;;;1.10;1.00;;;24.60;52.50;;;;;;6288443;28;20094;-68
2021/06/23 01:53:35;;;;;;;1.08;0.80;;;24.60;52.50;;;;;;6275317;28;20158;-68
2021/06/23 01:56:35;;;;;;;0.80;0.70;;;24.60;52.50;;;;;;6288786;28;20028;-67
2021/06/23 01:59:37;;;;;;;0.70;0.70;;;24.50;52.50;;;;;;6288543;28;20070;-68
2021/06/23 02:02:46;;;;;;;1.05;0.80;;;24.60;52.60;;;;;;6286565;28;20040;-68
2021/06/23 02:05:53;;;;;;;0.70;0.70;;;24.60;52.60;;;;;;6265793;28;20426;-67
2021/06/23 02:09:26;;;;;;;0.77;0.68;;;24.60;52.60;;;;;;6266360;28;20028;-68
2021/06/23 02:12:29;;;;;;;1.10;0.70;;;24.60;52.60;;;;;;6266079;28;20092;-68
2021/06/23 02:15:33;;;;;;;0.95;0.73;;;24.60;52.60;;;;;;6278785;28;20055;-68
2021/06/23 02:18:34;;;;;;;0.68;0.60;;;24.60;52.60;;;;;;6290788;28;20028;-68
2021/06/23 02:21:39;;;;;;;0.77;0.77;;;24.60;52.60;;;;;;6292759;28;20399;-68
2021/06/23 02:24:40;;;;;;;0.68;0.60;;;24.60;52.60;;;;;;6292856;28;20096;-68
2021/06/23 02:27:42;;;;;;;0.70;0.68;;;24.60;52.60;;;;;;6292780;28;20031;-67
2021/06/23 02:30:43;;;;;;;0.80;0.80;;;24.60;52.60;;;;;;6291950;28;20506;-67
2021/06/23 02:33:46;;;;;;;0.77;0.70;;;24.50;52.50;;;;;;6292659;28;20321;-68
2021/06/23 02:36:46;;;;;;;1.00;0.77;;;24.60;52.60;;;;;;6292222;28;20032;-67
2021/06/23 02:39:48;;;;;;;1.38;0.90;;;24.60;52.60;;;;;;6292517;28;20066;-67
2021/06/23 02:42:49;;;;;;;0.77;0.68;;;24.60;52.60;;;;;;6292441;28;20016;-68
2021/06/23 02:45:50;;;;;;;0.70;0.70;;;24.50;52.50;;;;;;6292296;28;20028;-68
2021/06/23 02:48:51;;;;;;;0.75;0.70;;;24.60;52.60;;;;;;6293013;28;20052;-67
2021/06/23 02:51:56;;;;;;;0.70;0.70;;;24.60;52.60;;;;;;6291500;28;20041;-67
2021/06/23 02:54:57;;;;;;;0.90;0.75;;;24.60;52.60;;;;;;6257429;28;20086;-68
2021/06/23 02:57:58;;;;;;;0.85;0.77;;;24.60;52.60;;;;;;6291851;28;20045;-67
2021/06/23 03:01:00;;;;;;;0.70;0.70;;;24.60;52.60;;;;;;6292043;28;20021;-67
2021/06/23 03:04:01;;;;;;;0.60;0.60;;;24.60;52.60;;;;;;6291654;28;20103;-68
2021/06/23 03:07:09;;;;;;;0.70;0.70;;;24.60;52.70;;;;;;6271010;28;20348;-67
2021/06/23 03:10:12;;;;;;;0.73;0.63;;;24.50;52.50;;;;;;6267137;28;20088;-68
2021/06/23 03:13:12;;;;;;;0.85;0.77;;;24.60;52.60;;;;;;6267091;28;20112;-68
2021/06/23 03:16:13;;;;;;;0.80;0.60;;;24.50;52.60;;;;;;6277973;28;20049;-68
2021/06/23 03:19:15;;;;;;;0.80;0.60;;;24.60;52.70;;;;;;6291611;28;20494;-68
2021/06/23 03:22:16;;;;;;;0.75;0.68;;;24.50;52.60;;;;;;6291324;28;20121;-68
2021/06/23 03:25:16;;;;;;;1.35;0.82;;;24.60;52.70;;;;;;6291133;28;20028;-68
2021/06/23 03:28:17;;;;;;;0.80;0.80;;;24.50;52.60;;;;;;6291554;28;20542;-68
2021/06/23 03:31:18;;;;;;;0.60;0.60;;;24.50;52.60;;;;;;6290754;28;20025;-68
2021/06/23 03:34:18;;;;;;;0.75;0.75;;;24.60;52.70;;;;;;6291456;28;20112;-67
2021/06/23 03:37:19;;;;;;;0.60;0.60;;;24.60;52.70;;;;;;6291065;28;20028;-68
2021/06/23 03:40:21;;;;;;;0.60;0.60;;;24.50;52.60;;;;;;6291090;28;20344;-68
2021/06/23 03:43:21;;;;;;;0.80;0.80;;;24.50;52.60;;;;;;6290902;28;20033;-68
2021/06/23 03:46:22;;;;;;;0.80;0.70;;;24.50;52.60;;;;;;6291306;28;20040;-68
2021/06/23 03:49:23;;;;;;;0.82;0.70;;;24.50;52.70;;;;;;6291131;28;20510;-68
2021/06/23 03:52:24;;;;;;;0.57;0.50;;;24.60;52.70;;;;;;6287154;28;20040;-68
2021/06/23 03:55:27;;;;;;;1.10;0.80;;;24.50;52.60;;;;;;6241379;28;20025;-68
2021/06/23 03:58:28;;;;;;;0.82;0.77;;;24.50;52.60;;;;;;6288186;28;20036;-68
2021/06/23 04:01:29;;;;;;;0.80;0.80;;;24.50;52.60;;;;;;6290482;28;20151;-68
2021/06/23 04:04:29;;;;;;;0.60;0.60;;;24.50;52.60;;;;;;6290496;28;20024;-68
2021/06/23 04:07:30;;;;;;;1.20;0.80;;;24.60;52.70;;;;;;6290399;28;20053;-68
2021/06/23 04:10:30;;;;;;;1.20;0.70;;;24.50;52.60;;;;;;6284638;28;20143;-67
2021/06/23 04:13:31;;;;;;;0.80;0.65;;;24.50;52.60;;;;;;6287858;28;20024;-68
2021/06/23 04:16:32;;;;;;;0.50;0.50;;;24.50;52.60;;;;;;6289878;28;20725;-68
2021/06/23 04:19:32;;;;;;;0.95;0.80;;;24.60;52.80;;;;;;6272311;28;20027;-68
2021/06/23 04:22:33;;;;;;;0.60;0.60;;;24.50;52.70;;;;;;6278407;28;20028;-68
2021/06/23 04:25:33;;;;;;;0.70;0.68;;;24.50;52.70;;;;;;6289439;28;20154;-68
2021/06/23 04:28:34;;;;;;;0.80;0.63;;;24.60;52.70;;;;;;6289956;28;20040;-68
2021/06/23 04:31:34;;;;;;;0.60;0.60;;;24.50;52.60;;;;;;6289786;28;20028;-68
2021/06/23 04:34:35;;;;;;;0.90;0.75;;;24.50;52.70;;;;;;6290280;28;20112;-68
2021/06/23 04:37:37;;;;;;;0.80;0.60;;;24.50;52.60;;;;;;6289500;28;20422;-68
2021/06/23 04:40:40;;;;;;;1.13;0.80;;;24.50;52.60;;;;;;6289013;28;20162;-68
2021/06/23 04:43:40;;;;;;;1.23;0.80;;;24.60;52.70;;;;;;6289265;28;20411;-68
2021/06/23 04:46:41;;;;;;;0.70;0.60;;;24.50;52.70;;;;;;6289910;28;20016;-68
2021/06/23 04:49:42;;;;;;;0.55;0.55;;;24.50;52.60;;;;;;6289690;28;20024;-68
2021/06/23 04:52:42;;;;;;;1.10;0.77;;;24.50;52.70;;;;;;6280885;28;20013;-69
2021/06/23 04:55:43;;;;;;;1.40;0.68;;;24.60;52.80;;;;;;6239874;28;20029;-68
2021/06/23 04:58:43;;;;;;;0.93;0.82;;;24.60;52.80;;;;;;6275217;28;20529;-68
2021/06/23 05:01:44;;;;;;;1.40;0.80;;;24.50;52.70;;;;;;6273549;28;20033;-68
2021/06/23 05:04:44;;;;;;;0.75;0.60;;;24.50;52.70;;;;;;6289213;28;20024;-68
2021/06/23 05:07:45;;;;;;;0.50;0.50;;;24.60;52.80;;;;;;6289292;28;20032;-68
2021/06/23 05:10:45;;;;;;;0.85;0.77;;;24.60;52.80;;;;;;6281226;28;20451;-68
2021/06/23 05:13:46;;;;;;;0.90;0.77;;;24.50;52.70;;;;;;6247522;28;20052;-68
2021/06/23 05:16:49;;;;;;;1.08;0.80;;;24.50;52.70;;;;;;6261525;28;20292;-68
2021/06/23 05:19:51;;;;;;;1.10;0.70;;;24.50;52.70;;;;;;6265128;28;20491;-68
2021/06/23 05:22:52;;;;;;;0.80;0.70;;;24.50;52.70;;;;;;6267975;28;20594;-68
2021/06/23 05:25:52;;;;;;;0.60;0.60;;;24.50;52.70;;;;;;6262421;28;20039;-68
2021/06/23 05:28:53;;;;;;;1.08;0.77;;;24.60;52.80;;;;;;6274946;28;20197;-68
2021/06/23 05:31:54;;;;;;;0.85;0.68;;;24.50;52.70;;;;;;6261152;28;20413;-68
2021/06/23 05:34:54;;;;;;;0.70;0.70;;;24.60;52.80;;;;;;6279676;28;20028;-67
2021/06/23 05:37:55;;;;;;;1.80;1.00;;;24.60;52.80;;;;;;6261221;28;20118;-67
2021/06/23 05:40:55;;;;;;;0.60;0.60;;;24.50;52.70;;;;;;6284703;28;20036;-68
2021/06/23 05:43:56;;;;;;;1.10;0.90;;;24.60;52.80;;;;;;6274359;28;20021;-68
2021/06/23 05:46:57;;;;;;;1.17;0.70;;;24.50;52.70;;;;;;6268702;28;20096;-68
2021/06/23 05:49:57;;;;;;;0.75;0.70;;;24.50;52.70;;;;;;6282024;28;20070;-69
2021/06/23 05:52:58;;;;;;;0.68;0.60;;;24.50;52.70;;;;;;6281567;28;20420;-68
2021/06/23 05:55:58;;;;;;;0.85;0.80;;;24.60;52.80;;;;;;6286836;28;20114;-68
2021/06/23 05:58:59;;;;;;;0.75;0.68;;;24.60;52.80;;;;;;6290060;28;20054;-68
2021/06/23 06:01:59;;;;;;;5.65;0.73;;;24.60;52.80;;;;;;6265228;28;20102;-68
2021/06/23 06:05:00;;;;;;;1.23;0.75;;;24.50;52.80;;;;;;6282232;28;20540;-68
2021/06/23 06:08:00;;;;;;;0.63;0.60;;;24.60;52.90;;;;;;6280730;28;20043;-68
2021/06/23 06:11:01;;;;;;;1.30;0.70;;;24.50;52.80;;;;;;6294618;28;20111;-68
2021/06/23 06:14:02;;;;;;;1.30;0.90;;;24.50;52.80;;;;;;6292280;28;20048;-68
2021/06/23 06:17:02;;;;;;;1.13;0.70;;;24.50;52.80;;;;;;6294544;28;20112;-68
2021/06/23 06:20:07;;;;;;;0.90;0.70;;;24.50;52.80;;;;;;6291261;28;20020;-68
2021/06/23 06:23:08;;;;;;;;;;;24.50;52.80;;;;;;6294505;28;20379;-68
2021/06/23 06:26:09;;;;;;;0.85;0.70;;;24.60;52.90;;;;;;6289465;28;19936;-68
2021/06/23 06:29:09;;;;;;;0.63;0.63;;;24.50;52.80;;;;;;6276277;28;20050;-68
2021/06/23 06:32:10;;;;;;;1.52;0.63;;;24.50;52.80;;;;;;6293600;28;20092;-68
2021/06/23 06:35:11;;;;;;;0.40;0.40;;;24.50;52.90;;;;;;6285496;28;20035;-68
2021/06/23 06:38:11;;;;;;;1.70;0.52;;;24.50;52.80;;;;;;6268803;28;20029;-68
2021/06/23 06:41:12;;;;;;;0.70;0.65;;;24.50;52.80;;;;;;6291396;28;20048;-68
2021/06/23 06:44:12;;;;;;;1.90;0.90;;;24.50;52.80;;;;;;6293327;28;20040;-68
2021/06/23 06:47:13;;;;;;;1.35;0.60;;;24.50;52.80;;;;;;6293235;28;20242;-68
2021/06/23 06:50:13;;;;;;;3.30;1.50;;;24.40;52.70;;;;;;6293225;28;20025;-68
2021/06/23 06:53:15;;;;;;;2.55;1.00;;;24.40;52.30;;;;;;6270311;28;20017;-67
2021/06/23 06:56:16;;;;;;;1.85;0.82;;;24.50;52.50;;;;;;6289297;28;20033;-68
2021/06/23 06:59:18;;;;;;;1.42;0.88;;;24.40;52.40;;;;;;6292376;28;20078;-68
2021/06/23 07:02:19;;;;;;;2.63;0.98;;;24.50;52.40;;;;;;6289612;28;20045;-68
2021/06/23 07:05:19;;;;;;;2.03;0.98;;;24.50;52.40;;;;;;6274534;28;20083;-68
2021/06/23 07:08:20;;;;;;;3.63;1.20;;;24.50;52.40;;;;;;6267366;28;20052;-68
2021/06/23 07:11:21;;;;;;;3.05;1.17;;;24.50;52.40;;;;;;6285814;28;20031;-68
2021/06/23 07:14:21;;;;;;;2.08;1.17;;;24.50;52.50;;;;;;6291982;28;20523;-67
2021/06/23 07:17:22;;;;;;;2.25;1.10;;;24.50;52.50;;;;;;6292390;28;20075;-68
2021/06/23 07:20:22;;;;;;;1.98;1.17;;;24.50;52.50;;;;;;6286911;28;20032;-68
2021/06/23 07:23:23;;;;;;;3.33;1.20;;;24.50;52.60;;;;;;6293184;28;20029;-68
2021/06/23 07:26:25;;;;;;;4.45;1.40;;;24.40;52.10;;;;;;6278915;28;20031;-67
2021/06/23 07:29:27;;;;;;;7.25;2.35;;;24.40;51.30;;;;;;6291702;28;20100;-68
2021/06/23 07:32:31;;;;;;;7.57;1.70;;;24.40;51.20;;;;;;6292661;28;20701;-68
2021/06/23 07:38:50;;;;;;;12.80;2.60;;;24.40;50.30;;;;;;6292186;28;20757;-68
2021/06/23 07:41:51;;;;;;;10.70;2.92;;;24.30;50.20;;;;;;6286387;28;20256;-67
2021/06/23 07:44:57;;;;;;;12.07;4.47;;;24.40;49.80;;;;;;6291157;28;20085;-68
2021/06/23 07:47:57;;;;;;;15.23;3.92;;;24.40;49.60;;;;;;6291837;28;20197;-68
2021/06/23 07:51:11;;;;;;;9.60;3.35;;;24.30;49.10;;;;;;6291938;28;20029;-68
2021/06/23 08:08:13;;;;;;;7.93;2.85;;;24.20;50.50;;;;;;6291254;28;20024;-68
2021/06/23 08:10:10;;;;;;;8.10;2.35;;;24.20;50.60;;;;;;6266634;28;20549;-68
2021/06/23 08:13:12;;;;;;;5.03;2.25;;;24.20;50.70;;;;;;6285608;28;20225;-68
2021/06/23 08:16:13;;;;;;;6.07;2.13;;;24.20;50.90;;;;;;6270321;28;20183;-68
2021/06/23 08:19:14;;;;;;;9.93;2.47;;;24.20;50.60;;;;;;6290301;28;20475;-68
2021/06/23 08:22:15;;;;;;;10.50;2.50;;;24.20;50.70;;;;;;6290447;28;20028;-68
2021/06/23 08:25:16;;;;;;;9.02;2.90;;;24.20;50.40;;;;;;6290705;28;20037;-68
2021/06/23 08:28:16;;;;;;;6.53;2.00;;;24.20;50.50;;;;;;6276691;28;20064;-67
2021/06/23 08:31:17;;;;;;;8.18;2.08;;;24.20;50.30;;;;;;6270077;28;20036;-68
2021/06/23 08:34:18;;;;;;;5.32;1.83;;;24.20;50.70;;;;;;6289644;28;20489;-68
2021/06/23 08:37:18;;;;;;;11.15;2.63;;;24.20;51.10;;;;;;6289393;28;20024;-68
2021/06/23 08:40:20;;;;;;;11.38;3.50;;;24.20;50.40;;;;;;6290680;28;20039;-67
2021/06/23 08:43:21;;;;;;;10.18;2.97;;;24.20;50.50;;;;;;6289259;28;20020;-68
2021/06/23 08:46:21;;;;;;;6.50;2.22;;;24.10;50.20;;;;;;6286824;28;20020;-68
2021/06/23 08:49:22;;;;;;;11.70;2.42;;;24.20;50.60;;;;;;6289664;28;20025;-67
2021/06/23 08:52:22;;;;;;;9.00;2.90;;;24.10;50.70;;;;;;6286395;28;20033;-68
2021/06/23 08:55:23;;;;;;;8.18;2.67;;;24.10;50.30;;;;;;6241513;28;20033;-68
2021/06/23 08:58:23;;;;;;;6.25;2.30;;;24.10;50.50;;;;;;6276272;28;20036;-67
2021/06/23 09:01:24;;;;;;;6.78;2.60;;;24.10;50.60;;;;;;6288580;28;20044;-68
2021/06/23 09:04:25;;;;;;;8.10;2.10;;;24.10;50.60;;;;;;6264287;28;20033;-68
2021/06/23 09:07:58;;;;;;;10.25;2.45;;;24.10;50.00;;;;;;6272168;28;20034;-67
2021/06/23 09:11:00;;;;;;;7.50;2.40;;;24.10;50.60;;;;;;6281375;28;20336;-67
2021/06/23 09:14:10;;;;;;;7.18;2.22;;;24.10;50.30;;;;;;6288534;28;20716;-68
2021/06/23 09:17:16;;;;;;;9.48;2.65;;;24.10;49.90;;;;;;6289197;28;20036;-70
2021/06/23 09:20:16;;;;;;;10.00;2.42;;;24.10;49.90;;;;;;6272664;28;20056;-68
2021/06/23 09:23:34;;;;;;;8.63;2.30;;;24.10;50.00;;;;;;6255992;28;20043;-68
2021/06/23 09:26:37;;;;;;;10.38;2.67;;;24.20;49.70;;;;;;6251615;28;20043;-68
2021/06/23 09:29:37;;;;;;;7.32;2.28;;;24.20;50.30;;;;;;6258396;28;20017;-68
2021/06/23 09:32:38;;;;;;;8.95;2.42;;;24.20;50.20;;;;;;6253380;28;20017;-68
2021/06/23 09:36:00;;;;;;;7.35;2.17;;;24.20;50.20;;;;;;6253280;28;20048;-68
2021/06/23 09:39:04;;;;;;;6.22;2.00;;;24.20;50.20;;;;;;6254312;28;20025;-68
2021/06/23 09:42:05;;;;;;;5.85;2.30;;;24.30;50.20;;;;;;6248559;28;20104;-68
2021/06/23 09:45:08;;;;;;;6.78;2.10;;;24.30;50.30;;;;;;6287919;28;20070;-69
2021/06/23 09:48:09;;;;;;;7.20;2.28;;;24.30;50.70;;;;;;6289214;28;20027;-68
2021/06/23 09:51:21;;;;;;;8.55;2.10;;;24.30;50.30;;;;;;6287359;28;20025;-68
2021/06/23 09:54:29;;;;;;;6.10;2.03;;;24.20;49.70;;;;;;6273323;28;20782;-67
2021/06/23 09:57:30;;;;;;;5.88;1.88;;;24.20;49.60;;;;;;6289901;28;20032;-68
2021/06/23 10:00:33;;;;;;;7.18;2.35;;;24.20;49.40;;;;;;6268173;28;20031;-68
2021/06/23 10:03:56;;;;;;;6.85;2.28;;;24.20;49.50;;;;;;6273249;28;20020;-68
2021/06/23 10:06:56;;;;;;;6.38;2.50;;;24.20;49.60;;;;;;6266308;28;20017;-68
2021/06/23 10:09:57;;;;;;;6.82;2.50;;;24.20;49.30;;;;;;6282778;28;20078;-68
2021/06/23 10:12:57;;;;;;;9.18;2.38;;;24.20;49.50;;;;;;6289360;28;20095;-68
2021/06/23 10:15:58;;;;;;;6.55;2.33;;;24.20;49.20;;;;;;6288692;28;20052;-68
2021/06/23 10:18:58;;;;;;;9.15;2.60;;;24.10;49.40;;;;;;6288715;28;20037;-68
2021/06/23 10:22:01;;;;;;;6.80;2.20;;;24.10;49.30;;;;;;6289249;28;20024;-68
2021/06/23 10:25:06;;;;;;;6.35;2.35;;;24.20;49.40;;;;;;6280712;28;20059;-68
2021/06/23 10:28:09;;;;;;;8.13;2.38;;;24.20;49.70;;;;;;6265735;28;20412;-68
2021/06/23 10:31:10;;;;;;;7.57;2.35;;;24.10;49.20;;;;;;6288235;28;20028;-68
2021/06/23 10:34:11;;;;;;;7.60;2.05;;;24.10;49.20;;;;;;6288132;28;20029;-69
2021/06/23 10:37:14;;;;;;;6.07;2.00;;;24.10;49.20;;;;;;6289870;28;20036;-68
2021/06/23 10:40:17;;;;;;;4.68;1.98;;;24.10;49.50;;;;;;6291362;28;20215;-68
2021/06/23 10:43:19;;;;;;;6.75;2.60;;;24.10;49.50;;;;;;6271461;28;20309;-67
2021/06/23 10:46:37;;;;;;;8.18;2.50;;;24.10;49.60;;;;;;6293119;28;20485;-67
2021/06/23 10:49:46;;;;;;;7.28;2.38;;;24.10;49.00;;;;;;6292951;28;20032;-68
2021/06/23 10:52:47;;;;;;;9.02;2.75;;;24.10;49.00;;;;;;6283929;28;20136;-68
2021/06/23 10:55:48;;;;;;;5.53;2.00;;;24.10;49.10;;;;;;6283669;28;20472;-68
2021/06/23 10:58:48;;;;;;;10.45;2.83;;;24.10;49.70;;;;;;6281088;28;20051;-68
2021/06/23 11:02:09;;;;;;;6.45;2.10;;;24.10;49.00;;;;;;6292864;28;20437;-68
2021/06/23 11:05:12;;;;;;;3.78;2.05;;;24.00;49.70;;;;;;6276972;28;20039;-68
2021/06/23 11:08:30;;;;;;;9.25;2.30;;;24.10;49.40;;;;;;6267743;28;20564;-68
2021/06/23 11:11:38;;;;;;;4.20;1.73;;;24.10;49.40;;;;;;6281918;28;20377;-68
2021/06/23 11:14:39;;;;;;;5.30;1.90;;;24.10;50.00;;;;;;6284757;28;20055;-67
2021/06/23 11:17:39;;;;;;;6.55;2.20;;;24.00;49.30;;;;;;6270955;28;20192;-68
2021/06/23 11:20:41;;;;;;;9.35;2.30;;;24.00;49.50;;;;;;6260935;28;20096;-68
2021/06/23 11:23:54;;;;;;;7.80;2.17;;;24.00;49.30;;;;;;6243041;28;20389;-68
2021/06/23 11:26:57;;;;;;;7.38;2.30;;;24.00;49.60;;;;;;6265220;28;20025;-68
2021/06/23 11:30:19;;;;;;;6.18;2.20;;;24.00;49.50;;;;;;6267560;28;20458;-68
2021/06/23 11:33:28;;;;;;;10.45;2.17;;;24.00;49.80;;;;;;6255383;28;20080;-68
2021/06/23 11:36:29;;;;;;;6.85;2.33;;;24.00;49.90;;;;;;6275755;28;20029;-68
2021/06/23 11:39:30;;;;;;;6.95;2.55;;;24.00;50.00;;;;;;6283399;28;20481;-67
2021/06/23 11:42:30;;;;;;;5.90;2.17;;;24.00;49.70;;;;;;6277191;28;20037;-68
2021/06/23 11:45:31;;;;;;;5.80;2.22;;;24.00;49.90;;;;;;6275288;28;20056;-67
2021/06/23 11:48:32;;;;;;;9.85;2.55;;;24.00;49.90;;;;;;6291335;28;20494;-68
2021/06/23 11:51:32;;;;;;;9.75;2.70;;;24.00;50.00;;;;;;6275735;28;20112;-68
2021/06/23 11:54:33;;;;;;;6.53;2.03;;;24.00;50.00;;;;;;6270439;28;20031;-67
2021/06/23 11:57:33;;;;;;;10.52;2.83;;;24.00;50.00;;;;;;6283685;28;20525;-68
2021/06/23 12:00:36;;;;;;;7.80;2.50;;;24.00;50.00;;;;;;6272604;28;20488;-68
2021/06/23 12:03:36;;;;;;;8.77;2.42;;;24.00;50.10;;;;;;6269861;28;20496;-68
2021/06/23 12:06:37;;;;;;;5.63;2.30;;;24.00;50.10;;;;;;6280995;28;20028;-68
2021/06/23 12:09:37;;;;;;;7.32;2.28;;;24.00;50.30;;;;;;6288737;28;20063;-67
2021/06/23 12:12:39;;;;;;;9.95;2.47;;;24.00;50.30;;;;;;6284480;28;20081;-68
2021/06/23 12:15:41;;;;;;;6.90;2.35;;;24.00;50.10;;;;;;6282878;28;20135;-68
2021/06/23 12:18:41;;;;;;;8.80;2.45;;;24.00;50.20;;;;;;6274500;28;20033;-68
2021/06/23 12:21:42;;;;;;;6.13;2.20;;;23.90;50.10;;;;;;6277985;28;20083;-68
2021/06/23 12:24:43;;;;;;;6.55;2.22;;;23.90;50.10;;;;;;6289802;28;20048;-69
2021/06/23 12:27:44;;;;;;;6.32;2.10;;;23.90;50.20;;;;;;6272654;28;20037;-67
2021/06/23 12:30:46;;;;;;;7.13;2.17;;;23.90;50.10;;;;;;6267341;28;20094;-68
2021/06/23 12:33:47;;;;;;;6.20;2.40;;;23.90;49.90;;;;;;6289505;28;20145;-68
2021/06/23 12:36:47;;;;;;;8.45;2.28;;;23.90;50.00;;;;;;6276939;28;20059;-68
2021/06/23 12:39:48;;;;;;;9.73;3.00;;;23.90;50.00;;;;;;6267721;28;20042;-68
2021/06/23 12:42:49;;;;;;;7.97;2.92;;;23.90;50.10;;;;;;6277789;28;20035;-68
2021/06/23 12:45:51;;;;;;;8.30;2.45;;;23.90;50.10;;;;;;6274665;28;20524;-68
2021/06/23 12:48:52;;;;;;;8.05;2.47;;;23.90;50.20;;;;;;6289437;28;20021;-68
2021/06/23 12:51:52;;;;;;;8.18;2.58;;;23.90;50.40;;;;;;6281731;28;20039;-68
2021/06/23 12:54:53;;;;;;;8.40;2.33;;;23.90;50.50;;;;;;6259490;28;20172;-68
2021/06/23 12:57:53;;;;;;;6.38;2.45;;;23.80;50.50;;;;;;6282431;28;20502;-68
2021/06/23 13:00:54;;;;;;;7.68;2.78;;;23.90;50.80;;;;;;6271773;28;20029;-68
2021/06/23 13:03:55;;;;;;;10.07;2.50;;;23.90;50.80;;;;;;6272242;28;20106;-68
2021/06/23 13:06:55;;;;;;;10.80;2.53;;;23.80;50.80;;;;;;6258427;28;20107;-68
2021/06/23 13:09:57;;;;;;;6.28;2.60;;;23.80;51.10;;;;;;6264139;28;20033;-68
2021/06/23 13:12:57;;;;;;;8.30;2.60;;;23.80;51.30;;;;;;6269661;28;20025;-68
2021/06/23 13:16:00;;;;;;;12.27;2.78;;;23.80;51.40;;;;;;6288489;28;20492;-68
2021/06/23 13:19:01;;;;;;;8.23;2.40;;;23.80;51.40;;;;;;6269099;28;20505;-68
2021/06/23 13:22:02;;;;;;;11.80;2.88;;;23.80;51.60;;;;;;6273288;28;20479;-68
2021/06/23 13:25:04;;;;;;;6.88;2.28;;;23.80;51.60;;;;;;6288429;28;20070;-68
2021/06/23 13:28:04;;;;;;;8.77;2.35;;;23.80;51.60;;;;;;6289549;28;20075;-68
2021/06/23 13:31:05;;;;;;;6.70;2.20;;;23.80;51.70;;;;;;6287040;28;20455;-68
2021/06/23 13:34:09;;;;;;;8.98;3.00;;;23.80;51.70;;;;;;6274743;28;20507;-68
2021/06/23 13:37:10;;;;;;;10.27;2.38;;;23.80;51.70;;;;;;6273292;28;20248;-67
2021/06/23 13:40:11;;;;;;;9.65;2.33;;;23.80;51.70;;;;;;6287979;28;20024;-69
2021/06/23 13:43:11;;;;;;;7.85;2.40;;;23.80;51.70;;;;;;6287686;28;20064;-68
2021/06/23 13:46:12;;;;;;;8.50;2.75;;;23.80;51.70;;;;;;6286585;28;20028;-68
2021/06/23 13:49:13;;;;;;;6.05;2.60;;;23.80;51.70;;;;;;6282135;28;20028;-68
2021/06/23 13:52:14;;;;;;;8.27;2.90;;;23.80;51.70;;;;;;6282310;28;20079;-68
2021/06/23 13:55:23;;;;;;;12.52;2.97;;;23.80;51.80;;;;;;6287519;28;20020;-67
2021/06/23 13:58:24;;;;;;;9.40;2.67;;;23.80;51.70;;;;;;6275564;28;20104;-68
2021/06/23 14:01:25;;;;;;;8.98;2.85;;;23.80;51.60;;;;;;6288407;28;20039;-68
2021/06/23 14:04:25;;;;;;;9.88;2.25;;;23.80;52.30;;;;;;6288527;28;20025;-68
2021/06/23 14:07:26;;;;;;;14.07;2.72;;;23.80;51.60;;;;;;6288146;28;20025;-68
2021/06/23 14:10:27;;;;;;;7.63;2.45;;;23.80;51.60;;;;;;6278116;28;20446;-68
2021/06/23 14:13:27;;;;;;;6.40;2.45;;;23.80;51.60;;;;;;6278937;28;20044;-67
2021/06/23 14:16:28;;;;;;;9.68;2.75;;;23.80;51.40;;;;;;6293119;28;20043;-68
2021/06/23 14:19:28;;;;;;;7.32;2.53;;;23.80;51.40;;;;;;6286623;28;20058;-68
2021/06/23 14:22:29;;;;;;;11.45;3.10;;;23.80;51.40;;;;;;6278706;28;20070;-68
2021/06/23 14:25:29;;;;;;;11.88;2.80;;;23.80;51.50;;;;;;6280233;28;20033;-67
2021/06/23 14:28:30;;;;;;;8.68;2.67;;;23.80;51.50;;;;;;6276607;28;20021;-67
2021/06/23 14:31:31;;;;;;;8.15;2.80;;;23.80;51.60;;;;;;6292991;28;20020;-68
2021/06/23 14:34:32;;;;;;;7.30;2.53;;;23.80;51.50;;;;;;6284742;28;20035;-67
2021/06/23 14:37:33;;;;;;;10.40;2.83;;;23.80;51.50;;;;;;6292393;28;20076;-68
2021/06/23 14:40:33;;;;;;;7.60;2.40;;;23.80;51.40;;;;;;6287648;28;20052;-68
2021/06/23 14:43:34;;;;;;;11.52;2.58;;;23.80;51.20;;;;;;6277146;28;20031;-67
2021/06/23 14:46:36;;;;;;;6.80;2.15;;;23.80;51.20;;;;;;6279035;28;20028;-67
2021/06/23 14:49:36;;;;;;;9.98;2.60;;;23.80;51.30;;;;;;6283929;28;20025;-67
2021/06/23 14:52:37;;;;;;;4.78;2.17;;;23.80;51.10;;;;;;6285607;28;20352;-68
2021/06/23 14:55:37;;;;;;;6.90;2.53;;;23.80;51.20;;;;;;6283480;28;20016;-68
2021/06/23 14:58:38;;;;;;;7.18;2.28;;;23.80;51.20;;;;;;6271737;28;20041;-67
2021/06/23 15:01:38;;;;;;;10.30;2.58;;;23.80;51.10;;;;;;6292361;28;20502;-67
2021/06/23 15:04:39;;;;;;;7.68;2.60;;;23.80;50.70;;;;;;6266279;28;20326;-67
2021/06/23 15:07:39;;;;;;;11.30;3.10;;;23.80;50.80;;;;;;6243293;28;20026;-67
2021/06/23 15:10:40;;;;;;;7.70;2.67;;;23.80;50.20;;;;;;6286022;28;20562;-67
2021/06/23 15:13:41;;;;;;;8.15;3.00;;;23.90;50.00;;;;;;6289470;28;21602;-68
2021/06/23 15:16:42;;;;;;;8.02;2.55;;;23.90;49.60;;;;;;6282831;28;20515;-68
2021/06/23 15:19:43;;;;;;;7.82;2.70;;;23.80;49.80;;;;;;6285711;28;20032;-67
2021/06/23 15:22:43;;;;;;;6.63;2.58;;;23.80;50.40;;;;;;6291075;28;20067;-67
2021/06/23 15:25:44;;;;;;;9.25;2.45;;;23.80;50.50;;;;;;6280626;28;20368;-67
2021/06/23 15:28:48;;;;;;;10.75;2.53;;;23.80;50.50;;;;;;6292351;28;20175;-67
2021/06/23 15:31:48;;;;;;;7.72;2.15;;;23.80;50.40;;;;;;6269399;28;20021;-67
2021/06/23 15:34:49;;;;;;;7.45;2.30;;;23.80;50.50;;;;;;6265649;28;20129;-67
2021/06/23 15:37:51;;;;;;;6.43;2.30;;;23.80;50.60;;;;;;6291940;28;20047;-68
2021/06/23 15:40:52;;;;;;;8.40;2.33;;;23.80;50.60;;;;;;6291384;28;20048;-68
2021/06/23 15:43:52;;;;;;;7.72;2.67;;;23.80;50.50;;;;;;6291342;28;20027;-68
2021/06/23 15:46:53;;;;;;;7.28;2.55;;;23.80;50.50;;;;;;6271935;28;20032;-67
2021/06/23 15:49:55;;;;;;;9.77;2.80;;;23.80;50.50;;;;;;6280750;28;20032;-67
2021/06/23 15:52:56;;;;;;;9.00;2.17;;;23.80;50.50;;;;;;6278795;28;20026;-67
2021/06/23 15:55:56;;;;;;;8.60;2.30;;;23.80;50.50;;;;;;6285601;28;20383;-67
2021/06/23 15:58:57;;;;;;;7.47;2.40;;;23.90;50.50;;;;;;6291485;28;20031;-67
2021/06/23 16:01:57;;;;;;;7.78;2.63;;;23.90;50.50;;;;;;6281571;28;20059;-68